Time;durP1;ratioP1;P1;durP2;ratioP2;P2;SDS_P1;SDS_P2;PMS_P1;PMS_P2;Temp;Humidity;BMP_temperature;BMP_pressure;BME280_temperature;BME280_humidity;BME280_pressure;Samples;Min_cycle;Max_cycle;Signal;HPM_P1;HPM_P2
2022/05/24 00:01:28;;;;;;;8.25;2.20;;;11.10;99.90;;;;;;6248167;23;20039;-91
2022/05/24 00:03:56;;;;;;;4.88;2.33;;;11.00;99.90;;;;;;6235767;22;20007;-92
2022/05/24 00:06:24;;;;;;;7.13;2.42;;;11.00;99.90;;;;;;6282328;22;20008;-93
2022/05/24 00:08:49;;;;;;;7.82;2.50;;;11.00;99.90;;;;;;6298019;22;20048;-92
2022/05/24 00:11:15;;;;;;;5.38;2.45;;;11.00;99.90;;;;;;6290805;22;20450;-91
2022/05/24 00:13:41;;;;;;;5.95;2.35;;;11.00;99.90;;;;;;6300920;22;20008;-90
2022/05/24 00:16:07;;;;;;;5.97;2.42;;;11.00;99.90;;;;;;6300929;22;20080;-90
2022/05/24 00:18:33;;;;;;;4.90;2.00;;;11.00;99.90;;;;;;6290844;22;20035;-92
2022/05/24 00:21:02;;;;;;;6.95;2.65;;;11.00;99.90;;;;;;6285950;22;20000;-92
2022/05/24 00:23:29;;;;;;;7.07;2.08;;;11.00;99.90;;;;;;6289144;22;20004;-90
2022/05/24 00:25:59;;;;;;;6.95;2.00;;;10.90;99.90;;;;;;6286174;22;20003;-93
2022/05/24 00:28:27;;;;;;;8.60;2.22;;;10.90;99.90;;;;;;6284016;22;20003;-92
2022/05/24 00:30:53;;;;;;;7.38;2.10;;;10.90;99.90;;;;;;6280096;22;20003;-93
2022/05/24 00:33:21;;;;;;;2.83;1.52;;;10.90;99.90;;;;;;6277444;22;20077;-92
2022/05/24 00:35:47;;;;;;;3.55;1.65;;;10.90;99.90;;;;;;6277010;22;20011;-92
2022/05/24 00:38:19;;;;;;;6.20;1.70;;;10.90;99.90;;;;;;6276906;22;20015;-93
2022/05/24 00:40:44;;;;;;;2.80;1.63;;;10.80;99.90;;;;;;6277971;22;20078;-93
2022/05/24 00:43:38;;;;;;;5.45;1.88;;;10.80;99.90;;;;;;6277348;22;20008;-93
2022/05/24 00:46:34;;;;;;;2.72;1.52;;;10.80;99.90;;;;;;6278593;22;20026;-92
2022/05/24 00:49:28;;;;;;;2.47;1.35;;;10.70;99.90;;;;;;6251118;22;20027;-92
2022/05/24 00:52:01;;;;;;;2.78;1.33;;;10.70;99.90;;;;;;6296298;22;20011;-92
2022/05/24 00:54:26;;;;;;;2.70;1.27;;;10.70;99.90;;;;;;6282044;22;20011;-93
2022/05/24 00:57:04;;;;;;;3.72;1.23;;;10.70;99.90;;;;;;6278895;22;19996;-93
2022/05/24 00:59:52;;;;;;;2.13;1.05;;;10.70;99.90;;;;;;6278953;22;20058;-92
2022/05/24 01:02:18;;;;;;;2.05;1.00;;;10.70;99.90;;;;;;6280755;22;20007;-92
2022/05/24 01:04:44;;;;;;;2.03;0.85;;;10.70;99.90;;;;;;6281433;22;20011;-94
2022/05/24 01:07:10;;;;;;;3.17;1.08;;;10.70;99.90;;;;;;6280364;22;20015;-94
2022/05/24 01:09:35;;;;;;;3.28;1.08;;;10.60;99.90;;;;;;6289136;22;19995;-91
2022/05/24 01:12:08;;;;;;;2.58;1.10;;;10.60;99.90;;;;;;6281462;22;20090;-92
2022/05/24 01:14:35;;;;;;;2.78;1.23;;;10.60;99.90;;;;;;6289736;22;20442;-92
2022/05/24 01:17:02;;;;;;;4.22;0.85;;;10.60;99.90;;;;;;6279103;22;20423;-91
2022/05/24 01:19:44;;;;;;;2.38;0.95;;;10.60;99.90;;;;;;6278074;22;20011;-92
2022/05/24 01:22:34;;;;;;;2.08;0.73;;;10.60;99.90;;;;;;6283922;22;20082;-93
2022/05/24 01:25:15;;;;;;;2.50;0.90;;;10.60;99.90;;;;;;6278501;22;20034;-94
2022/05/24 01:27:40;;;;;;;3.88;0.80;;;10.60;99.90;;;;;;6277583;22;20003;-94
2022/05/24 01:30:08;;;;;;;4.43;0.90;;;10.60;99.90;;;;;;6276954;22;20008;-93
2022/05/24 01:38:12;;;;;;;2.72;0.70;;;10.60;99.90;;;;;;6280026;22;20091;-94
2022/05/24 01:40:37;;;;;;;5.80;0.98;;;10.60;99.90;;;;;;6275837;22;20098;-92
2022/05/24 01:43:03;;;;;;;2.50;0.70;;;10.60;99.90;;;;;;6277115;22;20057;-93
2022/05/24 01:45:48;;;;;;;2.13;0.80;;;10.60;99.90;;;;;;6277239;22;20029;-93
2022/05/24 01:48:17;;;;;;;4.93;1.08;;;10.60;99.90;;;;;;6279297;22;20010;-92
2022/05/24 01:50:48;;;;;;;3.85;1.55;;;10.60;99.90;;;;;;6275892;22;20004;-92
2022/05/24 01:53:16;;;;;;;;;;;10.60;99.90;;;;;;6276308;22;20039;-93
2022/05/24 01:55:52;;;;;;;2.58;1.00;;;10.60;99.90;;;;;;6249853;22;19953;-93
2022/05/24 01:58:23;;;;;;;6.50;1.95;;;10.60;99.90;;;;;;6275165;22;20400;-93
2022/05/24 02:00:56;;;;;;;4.60;1.25;;;10.60;99.90;;;;;;6275215;22;20243;-93
2022/05/24 02:03:22;;;;;;;1.20;0.77;;;10.60;99.90;;;;;;6276035;22;20086;-92
2022/05/24 02:05:48;;;;;;;2.00;1.00;;;10.60;99.90;;;;;;6249333;22;20011;-93
2022/05/24 02:08:14;;;;;;;3.78;1.00;;;10.60;99.90;;;;;;6274517;22;20363;-92
2022/05/24 02:11:01;;;;;;;3.90;1.10;;;10.60;99.90;;;;;;6276025;22;20390;-92
2022/05/24 02:13:33;;;;;;;7.15;0.98;;;10.60;99.90;;;;;;6250530;22;20394;-95
2022/05/24 02:16:05;;;;;;;7.40;1.45;;;10.60;99.90;;;;;;6276395;22;20079;-92
2022/05/24 02:18:32;;;;;;;3.00;1.30;;;10.60;99.90;;;;;;6275519;22;20003;-94
2022/05/24 02:20:58;;;;;;;2.67;0.90;;;10.70;99.90;;;;;;6251885;22;20000;-95
2022/05/24 02:23:24;;;;;;;3.72;0.85;;;10.60;99.90;;;;;;6254068;22;20404;-93
2022/05/24 02:25:55;;;;;;;1.88;1.10;;;10.60;99.90;;;;;;6275980;22;20026;-92
2022/05/24 02:28:26;;;;;;;4.40;1.67;;;10.60;99.90;;;;;;6280749;22;20042;-93
2022/05/24 02:31:03;;;;;;;2.10;0.73;;;10.60;99.90;;;;;;6258999;22;20003;-92
2022/05/24 02:33:29;;;;;;;2.22;0.90;;;10.60;99.90;;;;;;6283211;22;20018;-93
2022/05/24 02:35:55;;;;;;;3.42;0.93;;;10.60;99.90;;;;;;6283499;22;20021;-93
2022/05/24 02:38:21;;;;;;;2.63;0.80;;;10.60;99.90;;;;;;6284037;22;20435;-92
2022/05/24 02:43:32;;;;;;;3.08;0.80;;;10.60;99.90;;;;;;6288024;22;20038;-91
2022/05/24 02:45:58;;;;;;;2.40;0.80;;;10.60;99.90;;;;;;6288256;22;20014;-92
2022/05/24 02:48:24;;;;;;;1.38;0.65;;;10.50;99.90;;;;;;6252859;22;20027;-92
2022/05/24 02:50:49;;;;;;;2.67;0.90;;;10.60;99.90;;;;;;6280620;22;20377;-93
2022/05/24 02:53:15;;;;;;;3.53;0.88;;;10.50;99.90;;;;;;6279878;22;20030;-92
2022/05/24 02:55:41;;;;;;;4.97;0.90;;;10.50;99.90;;;;;;6281251;22;20174;-92
2022/05/24 02:58:07;;;;;;;3.55;0.98;;;10.50;99.90;;;;;;6281461;22;20427;-92
2022/05/24 03:00:33;;;;;;;3.33;0.70;;;10.50;99.90;;;;;;6280644;22;20082;-92
2022/05/24 03:02:59;;;;;;;1.02;0.52;;;10.50;99.90;;;;;;6280536;22;20038;-92
2022/05/24 03:05:25;;;;;;;1.98;0.65;;;10.50;99.90;;;;;;6277750;22;20069;-92
2022/05/24 03:10:35;;;;;;;1.63;0.70;;;10.50;99.90;;;;;;6280136;22;20030;-93
2022/05/24 03:15:47;;;;;;;0.70;0.63;;;10.50;99.90;;;;;;6279599;22;20058;-93
2022/05/24 03:18:15;;;;;;;1.85;0.70;;;10.40;99.90;;;;;;6262879;22;20034;-92
2022/05/24 03:20:41;;;;;;;2.92;0.80;;;10.40;99.90;;;;;;6286875;22;20004;-92
2022/05/24 03:23:07;;;;;;;3.58;0.80;;;10.40;99.90;;;;;;6282561;22;20012;-94
2022/05/24 03:25:34;;;;;;;9.30;1.00;;;10.40;99.90;;;;;;6282664;22;20000;-93
2022/05/24 03:28:01;;;;;;;7.18;1.10;;;10.40;99.90;;;;;;6279940;22;20394;-92
2022/05/24 03:30:27;;;;;;;5.03;0.93;;;10.40;99.90;;;;;;6253975;22;20027;-93
2022/05/24 03:32:54;;;;;;;5.10;0.73;;;10.30;99.90;;;;;;6277955;22;20016;-93
2022/05/24 03:35:21;;;;;;;1.48;0.80;;;10.30;99.90;;;;;;6281176;22;20003;-92
2022/05/24 03:37:47;;;;;;;4.75;0.80;;;10.30;99.90;;;;;;6277615;22;20022;-94
2022/05/24 03:40:13;;;;;;;4.03;0.75;;;10.30;99.90;;;;;;6252946;22;20340;-93
2022/05/24 03:42:39;;;;;;;2.67;0.70;;;10.30;99.90;;;;;;6278830;22;20007;-93
2022/05/24 03:45:07;;;;;;;7.45;0.85;;;10.20;99.90;;;;;;6277542;22;20062;-94
2022/05/24 03:47:33;;;;;;;1.75;0.70;;;10.20;99.90;;;;;;6277164;22;20450;-93
2022/05/24 03:49:59;;;;;;;1.73;0.85;;;10.20;99.90;;;;;;6276354;22;20015;-92
2022/05/24 03:52:28;;;;;;;3.30;0.80;;;10.20;99.90;;;;;;6276780;22;20007;-91
2022/05/24 03:54:53;;;;;;;2.40;0.55;;;10.20;99.90;;;;;;6275939;22;20015;-91
2022/05/24 04:00:05;;;;;;;4.18;0.80;;;10.10;99.90;;;;;;6275637;22;20073;-92
2022/05/24 04:02:31;;;;;;;1.90;0.80;;;10.10;99.90;;;;;;6275152;22;20004;-91
2022/05/24 04:04:56;;;;;;;3.17;0.98;;;10.10;99.90;;;;;;6274207;22;20063;-91
2022/05/24 04:07:22;;;;;;;5.50;1.13;;;10.10;99.90;;;;;;6274932;22;20095;-92
2022/05/24 04:09:48;;;;;;;3.75;0.75;;;10.00;99.90;;;;;;6274981;22;20050;-92
2022/05/24 04:12:13;;;;;;;2.35;0.93;;;10.00;99.90;;;;;;6274453;22;20458;-92
2022/05/24 04:14:39;;;;;;;2.67;0.57;;;10.00;99.90;;;;;;6274527;22;20085;-93
2022/05/24 04:17:04;;;;;;;4.30;0.80;;;10.00;99.90;;;;;;6275297;22;20004;-92
2022/05/24 04:19:30;;;;;;;1.65;0.70;;;9.90;99.90;;;;;;6275683;22;20007;-92
2022/05/24 04:21:56;;;;;;;4.82;0.70;;;9.90;99.90;;;;;;6277774;22;20039;-92
2022/05/24 04:24:21;;;;;;;0.63;0.50;;;9.90;99.90;;;;;;6275333;22;20626;-91
2022/05/24 04:26:47;;;;;;;2.30;0.70;;;9.90;99.90;;;;;;6274770;22;20012;-91
2022/05/24 04:29:14;;;;;;;2.53;0.50;;;9.90;99.90;;;;;;6274145;22;20022;-92
2022/05/24 04:31:40;;;;;;;1.80;0.75;;;9.90;99.90;;;;;;6249050;22;20119;-92
2022/05/24 04:34:06;;;;;;;3.75;0.50;;;9.90;99.90;;;;;;6274213;22;20007;-91
2022/05/24 04:36:32;;;;;;;2.88;0.63;;;10.00;99.90;;;;;;6274955;22;20019;-92
2022/05/24 04:38:58;;;;;;;2.00;0.50;;;10.00;99.90;;;;;;6287737;22;20072;-90
2022/05/24 04:44:08;;;;;;;2.67;0.70;;;10.00;99.90;;;;;;6276756;22;20070;-90
2022/05/24 04:49:20;;;;;;;1.60;0.65;;;10.00;99.90;;;;;;6275934;22;20022;-93
2022/05/24 04:51:46;;;;;;;5.00;0.82;;;10.00;99.90;;;;;;6276318;22;20368;-92
2022/05/24 04:54:12;;;;;;;4.85;0.80;;;10.00;99.90;;;;;;6275908;22;20046;-93
2022/05/24 04:56:38;;;;;;;3.65;0.80;;;10.00;99.90;;;;;;6277162;22;20327;-93
2022/05/24 04:59:04;;;;;;;6.55;0.98;;;10.00;99.90;;;;;;6274789;22;20138;-93
2022/05/24 05:01:29;;;;;;;3.28;0.70;;;10.00;99.90;;;;;;6275339;22;19999;-94
2022/05/24 05:03:55;;;;;;;2.72;0.73;;;10.00;99.90;;;;;;6275229;22;20027;-92
2022/05/24 05:06:21;;;;;;;3.20;0.80;;;10.00;99.90;;;;;;6274317;22;20012;-93
2022/05/24 05:08:47;;;;;;;3.75;1.13;;;10.00;99.90;;;;;;6274964;22;20140;-92
2022/05/24 05:11:12;;;;;;;3.30;0.95;;;10.10;99.90;;;;;;6274280;22;20011;-92
2022/05/24 05:13:38;;;;;;;4.97;0.95;;;10.10;99.90;;;;;;6273572;22;20374;-93
2022/05/24 05:16:04;;;;;;;3.28;1.05;;;10.10;99.90;;;;;;6273680;22;20047;-92
2022/05/24 05:18:30;;;;;;;4.28;0.98;;;10.20;99.90;;;;;;6274126;22;20003;-93
2022/05/24 05:20:56;;;;;;;5.47;1.23;;;10.20;99.90;;;;;;6274641;22;20058;-93
2022/05/24 05:23:22;;;;;;;7.20;1.20;;;10.20;99.90;;;;;;6274981;22;20133;-91
2022/05/24 05:25:48;;;;;;;3.65;0.82;;;10.20;99.90;;;;;;6275625;22;19995;-91
2022/05/24 05:28:18;;;;;;;3.22;1.30;;;10.20;99.90;;;;;;6276278;22;20008;-91
2022/05/24 05:33:29;;;;;;;2.30;1.05;;;10.20;99.90;;;;;;6275304;22;20018;-93
2022/05/24 05:35:55;;;;;;;4.05;0.63;;;10.20;99.90;;;;;;6274244;22;20004;-92
2022/05/24 05:38:21;;;;;;;2.22;0.65;;;10.20;99.90;;;;;;6273548;22;20509;-92
2022/05/24 05:40:50;;;;;;;4.47;0.90;;;10.20;99.90;;;;;;6273798;22;20007;-92
2022/05/24 05:43:16;;;;;;;0.93;0.93;;;10.20;99.90;;;;;;6273665;22;20003;-92
2022/05/24 05:45:42;;;;;;;4.53;0.90;;;10.20;99.90;;;;;;6273679;22;20054;-93
2022/05/24 05:48:08;;;;;;;1.90;1.05;;;10.20;99.90;;;;;;6273577;22;20007;-92
2022/05/24 05:50:33;;;;;;;2.92;1.10;;;10.20;99.90;;;;;;6274445;22;20000;-94
2022/05/24 05:53:03;;;;;;;4.05;0.77;;;10.20;99.90;;;;;;6274328;22;20008;-93
2022/05/24 05:55:30;;;;;;;10.13;1.05;;;10.20;99.90;;;;;;6274873;22;20053;-93
2022/05/24 05:57:56;;;;;;;1.83;0.88;;;10.20;99.90;;;;;;6274529;22;20012;-91
2022/05/24 06:00:22;;;;;;;4.10;0.77;;;10.30;99.90;;;;;;6275789;22;20015;-92
2022/05/24 06:02:49;;;;;;;2.90;0.90;;;10.40;99.90;;;;;;6275427;22;20352;-92
2022/05/24 06:05:15;;;;;;;7.10;0.98;;;10.50;99.90;;;;;;6275247;22;20011;-93
2022/05/24 06:07:41;;;;;;;2.55;0.73;;;10.60;99.90;;;;;;6275046;22;20011;-93
2022/05/24 06:10:09;;;;;;;3.38;0.70;;;10.70;99.90;;;;;;6277483;22;20038;-93
2022/05/24 06:12:35;;;;;;;2.95;0.63;;;10.80;99.90;;;;;;6256436;22;20015;-95
2022/05/24 06:15:00;;;;;;;1.35;0.50;;;10.90;99.90;;;;;;6282072;22;20064;-92
2022/05/24 06:17:26;;;;;;;5.75;0.88;;;11.00;99.90;;;;;;6280875;22;20000;-93
2022/05/24 06:19:52;;;;;;;1.50;1.00;;;11.10;99.90;;;;;;6283433;22;20083;-92
2022/05/24 06:22:18;;;;;;;6.20;1.00;;;11.10;99.90;;;;;;6282089;22;20343;-91
2022/05/24 06:24:46;;;;;;;4.03;1.00;;;11.20;99.90;;;;;;6285004;22;20003;-92
2022/05/24 06:27:12;;;;;;;5.25;1.60;;;11.20;99.90;;;;;;6282362;22;20000;-93
2022/05/24 06:29:38;;;;;;;4.93;1.08;;;11.20;99.90;;;;;;6280089;22;20012;-93
2022/05/24 06:32:04;;;;;;;3.38;0.98;;;11.20;99.90;;;;;;6257173;22;20447;-91
2022/05/24 06:34:30;;;;;;;4.35;1.02;;;11.30;99.90;;;;;;6283073;22;20012;-91
2022/05/24 06:36:57;;;;;;;3.55;0.75;;;11.40;99.90;;;;;;6281336;22;20042;-92
2022/05/24 06:39:23;;;;;;;4.53;1.45;;;11.50;99.90;;;;;;6278233;22;20007;-92
2022/05/24 06:41:49;;;;;;;5.60;0.73;;;11.60;99.90;;;;;;6279942;22;20004;-90
2022/05/24 06:44:15;;;;;;;3.65;0.90;;;11.60;99.90;;;;;;6281368;22;20011;-91
2022/05/24 06:46:41;;;;;;;6.68;1.00;;;11.70;99.90;;;;;;6280382;22;20443;-94
2022/05/24 06:49:07;;;;;;;9.30;0.90;;;11.80;99.90;;;;;;6281204;22;20389;-92
2022/05/24 06:51:33;;;;;;;3.90;0.88;;;11.90;99.90;;;;;;6284036;22;20030;-93
2022/05/24 06:53:59;;;;;;;3.58;0.60;;;11.90;99.90;;;;;;6282046;22;20011;-91
2022/05/24 06:56:24;;;;;;;5.15;0.90;;;12.00;99.90;;;;;;6279382;22;20010;-93
2022/05/24 07:02:24;;;;;;;5.53;0.77;;;12.00;99.90;;;;;;6277967;22;20014;-93
2022/05/24 07:04:20;;;;;;;2.40;0.68;;;11.90;99.90;;;;;;6280530;22;20077;-91
2022/05/24 07:06:45;;;;;;;4.38;1.00;;;12.00;99.90;;;;;;6279091;22;20012;-92
2022/05/24 07:09:11;;;;;;;2.20;0.75;;;12.00;99.90;;;;;;6276836;22;20008;-91
2022/05/24 07:11:40;;;;;;;4.53;0.60;;;12.10;99.90;;;;;;6276357;22;20018;-92
2022/05/24 07:14:06;;;;;;;7.38;1.10;;;12.10;99.90;;;;;;6276913;22;20016;-91
2022/05/24 07:16:32;;;;;;;2.85;0.75;;;12.10;99.90;;;;;;6277903;22;20026;-91
2022/05/24 07:18:58;;;;;;;2.28;0.80;;;12.10;99.90;;;;;;6278225;22;20439;-92
2022/05/24 07:21:23;;;;;;;1.63;0.60;;;12.10;99.90;;;;;;6278459;22;20313;-92
2022/05/24 07:23:49;;;;;;;3.88;0.70;;;12.20;99.90;;;;;;6275951;22;20492;-93
2022/05/24 07:26:17;;;;;;;2.05;0.60;;;12.10;99.90;;;;;;6276874;22;20463;-93
2022/05/24 07:28:43;;;;;;;4.10;0.80;;;12.20;99.90;;;;;;6275694;22;20003;-92
2022/05/24 07:31:09;;;;;;;4.65;0.73;;;12.20;99.90;;;;;;6277618;22;20058;-91
2022/05/24 07:33:36;;;;;;;1.95;0.70;;;12.20;99.90;;;;;;6287465;22;20023;-92
2022/05/24 07:36:05;;;;;;;3.17;0.70;;;12.20;99.90;;;;;;6253496;22;19999;-91
2022/05/24 07:38:32;;;;;;;3.58;0.63;;;12.20;99.90;;;;;;6277179;22;20018;-93
2022/05/24 07:46:31;;;;;;;3.85;0.70;;;11.90;99.90;;;;;;6215615;23;20048;-89
2022/05/24 07:48:57;;;;;;;7.05;0.75;;;11.90;99.90;;;;;;6189584;23;20012;-90
2022/05/24 07:51:23;;;;;;;0.98;0.40;;;11.90;99.90;;;;;;6191170;23;20032;-91
2022/05/24 07:53:49;;;;;;;1.30;0.38;;;11.90;99.90;;;;;;6215403;23;20131;-90
2022/05/24 07:56:15;;;;;;;2.38;0.50;;;11.90;99.90;;;;;;6215162;23;20012;-89
2022/05/24 07:58:45;;;;;;;0.25;0.22;;;11.90;99.90;;;;;;6215107;23;20322;-91
2022/05/24 08:01:11;;;;;;;1.80;0.25;;;11.80;99.90;;;;;;6190223;23;20001;-90
2022/05/24 08:03:39;;;;;;;2.08;0.40;;;11.80;99.90;;;;;;6214682;23;20008;-91
2022/05/24 08:06:06;;;;;;;0.98;0.30;;;11.70;99.90;;;;;;6189787;23;20044;-91
2022/05/24 08:08:32;;;;;;;0.50;0.20;;;11.70;99.90;;;;;;6214410;23;20015;-90
2022/05/24 08:10:57;;;;;;;1.98;0.38;;;11.70;99.90;;;;;;6214265;23;20009;-91
2022/05/24 08:13:23;;;;;;;2.17;0.20;;;11.70;99.90;;;;;;6214033;23;20023;-90
2022/05/24 08:15:53;;;;;;;1.48;0.25;;;11.80;99.90;;;;;;6214614;23;20425;-90
2022/05/24 08:18:23;;;;;;;0.30;0.30;;;11.90;99.90;;;;;;6184471;23;20441;-91
2022/05/24 08:20:48;;;;;;;0.75;0.40;;;12.00;99.90;;;;;;6230442;22;20000;-91
2022/05/24 08:23:19;;;;;;;3.53;0.38;;;12.00;99.90;;;;;;6276894;22;20006;-91
2022/05/24 08:25:45;;;;;;;;;;;12.10;99.90;;;;;;6278199;22;20545;-89
2022/05/24 08:28:10;;;;;;;0.90;0.40;;;12.10;99.90;;;;;;6252591;22;19899;-90
2022/05/24 08:30:40;;;;;;;2.95;0.50;;;12.40;99.90;;;;;;6276622;22;20419;-91
2022/05/24 08:33:14;;;;;;;1.30;0.35;;;12.60;99.90;;;;;;6225862;22;20069;-90
2022/05/24 08:35:42;;;;;;;1.00;0.45;;;12.90;99.90;;;;;;6276512;22;20007;-90
2022/05/24 08:38:08;;;;;;;0.40;0.40;;;13.10;99.90;;;;;;6277039;22;20007;-91
2022/05/24 08:40:36;;;;;;;0.55;0.30;;;13.20;99.90;;;;;;6277239;22;20082;-91
2022/05/24 08:43:39;;;;;;;0.30;0.30;;;13.40;99.90;;;;;;6278604;22;20107;-90
2022/05/24 08:49:03;;;;;;;0.63;0.32;;;14.00;99.90;;;;;;6279036;22;20084;-90
2022/05/24 08:51:32;;;;;;;0.95;0.52;;;14.20;99.90;;;;;;6277469;22;20312;-90
2022/05/24 08:54:04;;;;;;;0.57;0.40;;;14.20;99.00;;;;;;6277012;22;20165;-90
2022/05/24 08:56:38;;;;;;;1.10;0.30;;;14.20;97.90;;;;;;6277333;22;20000;-92
2022/05/24 08:59:20;;;;;;;1.00;0.50;;;14.30;96.50;;;;;;6278181;22;20427;-90
2022/05/24 09:01:48;;;;;;;1.27;0.38;;;14.30;96.40;;;;;;6276556;22;20008;-91
2022/05/24 09:04:15;;;;;;;3.78;0.60;;;14.20;96.30;;;;;;6278637;22;20011;-91
2022/05/24 09:06:53;;;;;;;1.15;0.40;;;14.00;95.70;;;;;;6277833;22;20003;-91
2022/05/24 09:09:41;;;;;;;2.30;0.50;;;13.80;96.10;;;;;;6278758;22;20031;-91
2022/05/24 09:12:40;;;;;;;1.38;0.38;;;13.60;96.90;;;;;;6280305;22;20056;-90
2022/05/24 09:15:30;;;;;;;1.85;0.57;;;13.50;97.60;;;;;;6287329;22;20042;-90
2022/05/24 09:18:12;;;;;;;2.72;0.57;;;13.40;98.20;;;;;;6288743;22;20004;-91
2022/05/24 09:20:44;;;;;;;1.48;0.70;;;13.30;98.60;;;;;;6280745;22;20000;-90
2022/05/24 09:23:46;;;;;;;0.63;0.45;;;13.30;99.10;;;;;;6281157;22;20030;-90
2022/05/24 09:26:20;;;;;;;1.05;0.60;;;13.20;99.90;;;;;;6279031;22;20072;-90
2022/05/24 09:28:48;;;;;;;1.20;0.70;;;13.10;99.90;;;;;;6278556;22;20027;-89
2022/05/24 09:31:26;;;;;;;2.35;0.80;;;13.10;99.90;;;;;;6279293;22;20008;-89
2022/05/24 09:34:04;;;;;;;1.85;0.70;;;13.10;99.90;;;;;;6277820;22;20077;-90
2022/05/24 09:36:32;;;;;;;1.05;0.45;;;13.10;99.90;;;;;;6278927;22;20079;-90
2022/05/24 09:39:02;;;;;;;6.80;1.02;;;13.20;99.90;;;;;;6277555;22;20027;-90
2022/05/24 09:41:27;;;;;;;5.75;0.55;;;13.40;99.90;;;;;;6276839;22;20000;-90
2022/05/24 09:44:16;;;;;;;0.68;0.38;;;13.50;99.50;;;;;;6275953;22;20015;-90
2022/05/24 09:46:43;;;;;;;1.20;0.28;;;13.80;98.30;;;;;;6276553;22;20196;-90
2022/05/24 09:49:24;;;;;;;0.65;0.30;;;14.10;97.50;;;;;;6276556;22;20007;-90
2022/05/24 09:51:56;;;;;;;1.23;0.20;;;14.30;96.70;;;;;;6277760;22;20011;-92
2022/05/24 09:54:28;;;;;;;0.93;0.38;;;14.50;96.20;;;;;;6276170;22;20016;-89
2022/05/24 09:57:11;;;;;;;0.77;0.30;;;14.80;95.50;;;;;;6277336;22;20000;-91
2022/05/24 09:59:40;;;;;;;1.08;0.50;;;15.10;94.60;;;;;;6276022;22;20040;-90
2022/05/24 10:02:28;;;;;;;3.17;0.50;;;15.20;93.80;;;;;;6276844;22;20423;-92
2022/05/24 10:04:55;;;;;;;0.88;0.50;;;15.30;92.60;;;;;;6276499;22;20011;-90
2022/05/24 10:07:30;;;;;;;0.50;0.43;;;15.40;92.40;;;;;;6276678;22;20319;-91
2022/05/24 10:10:05;;;;;;;1.95;0.50;;;15.60;92.00;;;;;;6276899;22;20062;-92
2022/05/24 10:12:36;;;;;;;3.47;0.50;;;15.70;91.30;;;;;;6276850;22;20011;-90
2022/05/24 10:15:07;;;;;;;1.77;0.40;;;15.90;90.90;;;;;;6280417;22;20041;-92
2022/05/24 10:18:00;;;;;;;1.15;0.38;;;15.90;90.70;;;;;;6279272;22;20008;-90
2022/05/24 10:20:35;;;;;;;1.92;0.30;;;15.60;86.80;;;;;;6279507;22;20154;-91
2022/05/24 10:23:31;;;;;;;0.80;0.20;;;15.20;85.20;;;;;;6277178;22;20040;-92
2022/05/24 10:26:39;;;;;;;0.98;0.17;;;15.10;83.60;;;;;;6276962;22;20004;-90
2022/05/24 10:29:39;;;;;;;0.52;0.30;;;15.10;83.40;;;;;;6278247;22;20454;-91
2022/05/24 10:38:29;;;;;;;1.10;0.40;;;15.70;83.10;;;;;;6185724;23;20100;-92
2022/05/24 10:41:22;;;;;;;0.70;0.32;;;15.80;82.70;;;;;;6185208;23;20040;-91
2022/05/24 10:44:19;;;;;;;3.45;0.50;;;15.80;83.00;;;;;;6185686;23;20005;-91
2022/05/24 10:46:51;;;;;;;4.10;0.60;;;16.00;83.60;;;;;;6186751;23;20041;-92
2022/05/24 10:49:28;;;;;;;1.88;0.60;;;16.10;83.30;;;;;;6184741;23;20555;-92
2022/05/24 10:52:28;;;;;;;2.35;0.60;;;16.30;83.80;;;;;;6184005;23;20009;-91
2022/05/24 10:55:03;;;;;;;4.00;0.50;;;16.40;83.60;;;;;;6148303;23;20097;-91
2022/05/24 10:57:42;;;;;;;2.13;0.55;;;16.60;84.10;;;;;;6183952;23;20044;-92
2022/05/24 11:00:16;;;;;;;5.22;0.80;;;16.80;83.60;;;;;;6185060;23;20020;-91
2022/05/24 11:03:06;;;;;;;4.43;0.38;;;16.70;83.00;;;;;;6183806;23;20084;-92
2022/05/24 11:05:45;;;;;;;1.30;0.63;;;16.80;82.10;;;;;;6184747;23;20025;-90
2022/05/24 11:08:45;;;;;;;2.08;0.65;;;17.10;80.10;;;;;;6184568;23;20005;-91
2022/05/24 11:11:36;;;;;;;1.85;0.30;;;17.30;78.20;;;;;;6171296;22;20003;-89
2022/05/24 11:14:27;;;;;;;0.88;0.40;;;17.40;74.60;;;;;;6277609;22;20016;-92
2022/05/24 11:16:53;;;;;;;1.23;0.43;;;17.60;73.00;;;;;;6277988;22;20053;-91
2022/05/24 11:19:39;;;;;;;1.55;0.50;;;17.70;72.20;;;;;;6278154;22;20080;-92
2022/05/24 11:22:20;;;;;;;3.80;0.65;;;17.80;71.60;;;;;;6272753;22;20004;-90
2022/05/24 11:25:11;;;;;;;1.45;0.60;;;17.90;70.60;;;;;;6278042;22;20030;-90
2022/05/24 11:27:39;;;;;;;;;;;18.00;70.10;;;;;;6252673;22;20031;-91
2022/05/24 11:30:15;;;;;;;3.50;0.60;;;18.10;70.10;;;;;;6251437;22;20327;-91
2022/05/24 11:32:50;;;;;;;5.28;0.80;;;18.20;70.00;;;;;;6278238;22;20007;-89
2022/05/24 11:35:18;;;;;;;3.40;0.57;;;18.40;69.70;;;;;;6278111;22;20435;-89
2022/05/24 11:38:09;;;;;;;1.58;0.57;;;18.50;69.30;;;;;;6280446;22;19996;-91
2022/05/24 11:41:02;;;;;;;1.17;0.57;;;18.60;69.50;;;;;;6283038;22;20004;-90
2022/05/24 11:43:43;;;;;;;2.70;0.40;;;18.40;69.20;;;;;;6285910;22;20057;-90
2022/05/24 11:46:29;;;;;;;1.25;0.40;;;18.50;69.40;;;;;;6286919;22;20010;-91
2022/05/24 11:48:57;;;;;;;4.30;0.60;;;18.50;68.40;;;;;;6303870;22;20002;-91
2022/05/24 11:51:47;;;;;;;1.80;0.43;;;18.60;67.30;;;;;;6277511;22;20063;-92
2022/05/24 11:54:19;;;;;;;2.30;0.50;;;18.70;66.10;;;;;;6291823;22;20022;-92
2022/05/24 11:57:03;;;;;;;2.00;0.50;;;18.60;65.50;;;;;;6284081;22;20000;-93
2022/05/24 11:59:43;;;;;;;1.73;0.45;;;18.30;66.30;;;;;;6279192;22;20053;-92
2022/05/24 12:02:32;;;;;;;3.33;0.70;;;18.00;67.20;;;;;;6279164;22;20007;-90
2022/05/24 12:08:27;;;;;;;1.67;0.50;;;18.20;68.40;;;;;;6279366;22;20068;-91
2022/05/24 12:11:06;;;;;;;0.95;0.38;;;18.50;66.60;;;;;;6244675;22;20003;-92
2022/05/24 12:13:46;;;;;;;2.85;0.60;;;18.30;65.80;;;;;;6289276;22;20011;-91
2022/05/24 12:16:32;;;;;;;0.88;0.28;;;18.30;66.10;;;;;;6287440;22;19996;-90
2022/05/24 12:19:03;;;;;;;1.90;0.30;;;18.20;64.10;;;;;;6286056;22;20131;-93
2022/05/24 12:22:00;;;;;;;1.83;0.52;;;18.20;63.40;;;;;;6283123;22;20083;-92
2022/05/24 12:24:28;;;;;;;4.32;0.73;;;18.40;63.70;;;;;;6282494;22;20000;-93
2022/05/24 12:27:28;;;;;;;2.17;0.40;;;18.50;63.30;;;;;;6279908;22;20000;-92
2022/05/24 12:30:12;;;;;;;0.57;0.45;;;18.50;64.30;;;;;;6279278;22;20010;-92
2022/05/24 12:32:41;;;;;;;1.75;0.52;;;18.60;64.20;;;;;;6252378;22;20012;-91
2022/05/24 12:35:11;;;;;;;2.58;0.38;;;18.80;63.40;;;;;;6278373;22;20450;-91
2022/05/24 12:37:47;;;;;;;3.63;0.87;;;18.70;63.00;;;;;;6278202;22;19996;-92
2022/05/24 12:40:27;;;;;;;4.07;0.70;;;18.70;64.20;;;;;;6273858;22;20015;-92
2022/05/24 12:42:59;;;;;;;1.35;0.63;;;18.80;65.40;;;;;;6278193;22;20004;-93
2022/05/24 12:45:45;;;;;;;3.72;0.38;;;18.90;65.00;;;;;;6277826;22;20078;-92
2022/05/24 12:48:17;;;;;;;3.67;0.50;;;18.90;64.60;;;;;;6277839;22;20063;-92
2022/05/24 12:50:43;;;;;;;2.70;0.57;;;18.60;64.70;;;;;;6280310;22;20396;-92
2022/05/24 12:53:12;;;;;;;1.60;0.60;;;18.60;65.30;;;;;;6278221;22;20016;-93
2022/05/24 12:55:55;;;;;;;1.00;0.38;;;18.70;65.30;;;;;;6252284;22;20033;-90
2022/05/24 12:58:33;;;;;;;1.85;0.60;;;18.50;64.60;;;;;;6278129;22;20133;-91
2022/05/24 13:01:22;;;;;;;5.03;0.63;;;18.50;65.60;;;;;;6279593;22;20427;-94
2022/05/24 13:03:51;;;;;;;0.82;0.47;;;18.50;66.00;;;;;;6281639;22;20015;-91
2022/05/24 13:06:26;;;;;;;2.40;0.60;;;18.40;65.80;;;;;;6278358;22;20004;-91
2022/05/24 13:09:16;;;;;;;3.40;0.40;;;18.50;65.90;;;;;;6277810;22;20465;-91
2022/05/24 13:11:44;;;;;;;2.85;0.50;;;18.50;65.40;;;;;;6278045;22;20003;-92
2022/05/24 13:14:20;;;;;;;2.38;0.63;;;18.50;65.40;;;;;;6278195;22;20077;-90
2022/05/24 13:16:46;;;;;;;3.33;0.50;;;18.60;64.10;;;;;;6278594;22;20203;-92
2022/05/24 13:19:11;;;;;;;1.40;0.38;;;18.60;64.40;;;;;;6278675;22;20000;-91
2022/05/24 13:21:37;;;;;;;5.43;0.45;;;18.50;64.50;;;;;;6278610;22;20401;-90
2022/05/24 13:24:16;;;;;;;0.82;0.40;;;18.60;64.80;;;;;;6277176;22;20004;-92
2022/05/24 13:27:03;;;;;;;1.27;0.35;;;18.50;64.20;;;;;;6277461;22;20004;-91
2022/05/24 13:29:29;;;;;;;2.45;0.80;;;18.30;63.20;;;;;;6276797;22;20011;-92
2022/05/24 13:34:57;;;;;;;;;;;18.30;64.60;;;;;;6278927;22;20107;-91
2022/05/24 13:37:25;;;;;;;0.65;0.30;;;18.50;64.10;;;;;;6239589;22;19903;-91
2022/05/24 13:39:53;;;;;;;1.30;0.20;;;18.50;62.40;;;;;;6276443;22;20060;-91
2022/05/24 13:42:30;;;;;;;2.92;0.90;;;18.30;62.20;;;;;;6276831;22;20007;-90
2022/05/24 13:45:21;;;;;;;3.47;0.15;;;18.20;61.40;;;;;;6276105;22;20000;-89
2022/05/24 13:48:01;;;;;;;2.00;0.60;;;18.50;61.80;;;;;;6268911;22;20043;-91
2022/05/24 13:50:36;;;;;;;3.22;0.30;;;19.00;61.80;;;;;;6273514;22;20015;-90
2022/05/24 13:53:41;;;;;;;1.50;0.43;;;19.50;61.50;;;;;;6279405;22;20007;-92
2022/05/24 13:56:20;;;;;;;2.05;0.52;;;19.60;60.70;;;;;;6277675;22;20013;-91
2022/05/24 13:58:49;;;;;;;1.60;0.40;;;19.40;60.10;;;;;;6280054;22;20003;-91
2022/05/24 14:01:44;;;;;;;5.18;0.40;;;19.10;60.90;;;;;;6278047;22;20011;-91